sensor_id;sensor_type;location;lat;lon;timestamp;pressure;altitude;pressure_sealevel;temperature;humidity
9764;BME280;4921;43.214;27.936;2023-04-07T00:01:13;100862.63;;;9.78;59.24
9764;BME280;4921;43.214;27.936;2023-04-07T00:03:40;100855.13;;;9.85;58.42
9764;BME280;4921;43.214;27.936;2023-04-07T00:06:09;100859.41;;;9.86;58.15
9764;BME280;4921;43.214;27.936;2023-04-07T00:08:36;100854.28;;;9.84;58.10
9764;BME280;4921;43.214;27.936;2023-04-07T00:11:03;100853.97;;;9.89;58.23
9764;BME280;4921;43.214;27.936;2023-04-07T00:13:30;100853.22;;;9.87;59.03
9764;BME280;4921;43.214;27.936;2023-04-07T00:15:57;100858.97;;;9.92;58.53
9764;BME280;4921;43.214;27.936;2023-04-07T00:18:25;100858.75;;;9.95;58.40
9764;BME280;4921;43.214;27.936;2023-04-07T00:20:52;100845.47;;;9.85;58.05
9764;BME280;4921;43.214;27.936;2023-04-07T00:23:20;100857.91;;;9.94;57.07
9764;BME280;4921;43.214;27.936;2023-04-07T00:25:47;100858.97;;;9.92;57.72
9764;BME280;4921;43.214;27.936;2023-04-07T00:28:14;100859.72;;;9.94;56.79
9764;BME280;4921;43.214;27.936;2023-04-07T00:31:00;100856.34;;;9.92;56.57
9764;BME280;4921;43.214;27.936;2023-04-07T00:33:27;100851.09;;;9.92;56.70
9764;BME280;4921;43.214;27.936;2023-04-07T00:35:54;100856.59;;;9.89;56.49
9764;BME280;4921;43.214;27.936;2023-04-07T00:38:23;100853.50;;;9.95;55.60
9764;BME280;4921;43.214;27.936;2023-04-07T00:40:56;100847.53;;;9.93;55.17
9764;BME280;4921;43.214;27.936;2023-04-07T00:43:24;100856.13;;;9.95;55.15
9764;BME280;4921;43.214;27.936;2023-04-07T00:45:51;100858.63;;;9.96;54.01
9764;BME280;4921;43.214;27.936;2023-04-07T00:48:18;100850.53;;;9.99;53.82
9764;BME280;4921;43.214;27.936;2023-04-07T00:50:45;100860.94;;;10.01;53.90
9764;BME280;4921;43.214;27.936;2023-04-07T00:53:12;100860.84;;;10.03;53.67
9764;BME280;4921;43.214;27.936;2023-04-07T00:55:41;100862.75;;;10.01;53.09
9764;BME280;4921;43.214;27.936;2023-04-07T00:58:08;100871.16;;;9.93;52.74
9764;BME280;4921;43.214;27.936;2023-04-07T01:00:41;100859.47;;;9.97;52.84
9764;BME280;4921;43.214;27.936;2023-04-07T01:03:12;100859.72;;;9.94;53.46
9764;BME280;4921;43.214;27.936;2023-04-07T01:05:49;100857.56;;;9.99;52.99
9764;BME280;4921;43.214;27.936;2023-04-07T01:08:20;100855.28;;;9.94;53.37
9764;BME280;4921;43.214;27.936;2023-04-07T01:10:55;100863.50;;;9.90;53.42
9764;BME280;4921;43.214;27.936;2023-04-07T01:13:26;100849.75;;;9.86;54.67
9764;BME280;4921;43.214;27.936;2023-04-07T01:15:54;100854.50;;;9.81;54.52
9764;BME280;4921;43.214;27.936;2023-04-07T01:18:28;100856.34;;;9.92;53.40
9764;BME280;4921;43.214;27.936;2023-04-07T01:21:03;100850.34;;;9.79;54.18
9764;BME280;4921;43.214;27.936;2023-04-07T01:23:41;100856.25;;;9.70;54.76
9764;BME280;4921;43.214;27.936;2023-04-07T01:26:23;100851.72;;;9.72;54.94
9764;BME280;4921;43.214;27.936;2023-04-07T01:29:33;100854.50;;;9.81;54.79
9764;BME280;4921;43.214;27.936;2023-04-07T01:32:05;100856.84;;;9.73;54.47
9764;BME280;4921;43.214;27.936;2023-04-07T01:34:34;100860.94;;;9.77;54.74
9764;BME280;4921;43.214;27.936;2023-04-07T01:37:02;100858.56;;;9.62;55.49
9764;BME280;4921;43.214;27.936;2023-04-07T01:39:30;100858.63;;;9.73;55.17
9764;BME280;4921;43.214;27.936;2023-04-07T01:41:58;100856.25;;;9.70;54.39
9764;BME280;4921;43.214;27.936;2023-04-07T01:44:28;100860.72;;;9.80;54.18
9764;BME280;4921;43.214;27.936;2023-04-07T01:46:58;100852.97;;;9.79;54.07
9764;BME280;4921;43.214;27.936;2023-04-07T01:49:27;100845.81;;;9.68;53.63
9764;BME280;4921;43.214;27.936;2023-04-07T01:51:56;100854.50;;;9.81;53.08
9764;BME280;4921;43.214;27.936;2023-04-07T01:54:24;100859.66;;;9.83;52.77
9764;BME280;4921;43.214;27.936;2023-04-07T01:56:51;100849.25;;;9.81;53.28
9764;BME280;4921;43.214;27.936;2023-04-07T01:59:18;100854.28;;;9.84;52.41
9764;BME280;4921;43.214;27.936;2023-04-07T02:01:46;100860.25;;;9.86;52.27
9764;BME280;4921;43.214;27.936;2023-04-07T02:04:19;100860.25;;;9.86;52.15
9764;BME280;4921;43.214;27.936;2023-04-07T02:06:52;100847.41;;;9.71;52.74
9764;BME280;4921;43.214;27.936;2023-04-07T02:09:21;100855.13;;;9.85;52.78
9764;BME280;4921;43.214;27.936;2023-04-07T02:11:51;100850.94;;;9.82;52.67
9764;BME280;4921;43.214;27.936;2023-04-07T02:14:21;100863.00;;;9.61;52.25
9764;BME280;4921;43.214;27.936;2023-04-07T02:16:49;100857.84;;;9.60;53.05
9764;BME280;4921;43.214;27.936;2023-04-07T02:19:18;100861.50;;;9.70;52.29
9764;BME280;4921;43.214;27.936;2023-04-07T02:21:47;100859.53;;;9.61;52.12
9764;BME280;4921;43.214;27.936;2023-04-07T02:24:18;100857.66;;;9.50;53.04
9764;BME280;4921;43.214;27.936;2023-04-07T02:26:46;100867.97;;;9.41;52.80
9764;BME280;4921;43.214;27.936;2023-04-07T02:29:13;100865.97;;;9.44;53.54
9764;BME280;4921;43.214;27.936;2023-04-07T02:31:40;100869.00;;;9.38;53.64
9764;BME280;4921;43.214;27.936;2023-04-07T02:34:07;100877.25;;;9.34;53.81
9764;BME280;4921;43.214;27.936;2023-04-07T02:36:35;100878.03;;;9.47;53.55
9764;BME280;4921;43.214;27.936;2023-04-07T02:39:02;100875.72;;;9.55;53.14
9764;BME280;4921;43.214;27.936;2023-04-07T02:41:29;100878.22;;;9.56;53.53
9764;BME280;4921;43.214;27.936;2023-04-07T02:43:56;100878.88;;;9.47;53.57
9764;BME280;4921;43.214;27.936;2023-04-07T02:46:23;100885.81;;;9.48;53.51
9764;BME280;4921;43.214;27.936;2023-04-07T02:48:50;100878.44;;;9.53;53.78
9764;BME280;4921;43.214;27.936;2023-04-07T02:51:17;100893.97;;;9.56;53.54
9764;BME280;4921;43.214;27.936;2023-04-07T02:53:46;100890.09;;;9.49;54.14
9764;BME280;4921;43.214;27.936;2023-04-07T02:56:14;100890.63;;;9.54;54.24
9764;BME280;4921;43.214;27.936;2023-04-07T02:58:41;100893.03;;;9.57;53.84
9764;BME280;4921;43.214;27.936;2023-04-07T03:01:08;100874.34;;;9.49;54.14
9764;BME280;4921;43.214;27.936;2023-04-07T03:03:35;100892.31;;;9.55;53.78
9764;BME280;4921;43.214;27.936;2023-04-07T03:06:04;100890.81;;;9.64;53.27
9764;BME280;4921;43.214;27.936;2023-04-07T03:08:32;100883.16;;;9.61;52.28
9764;BME280;4921;43.214;27.936;2023-04-07T03:11:00;100896.69;;;9.67;53.17
9764;BME280;4921;43.214;27.936;2023-04-07T03:13:28;100896.47;;;9.70;52.67
9764;BME280;4921;43.214;27.936;2023-04-07T03:15:55;100895.38;;;9.73;53.54
9764;BME280;4921;43.214;27.936;2023-04-07T03:18:22;100894.78;;;9.69;53.60
9764;BME280;4921;43.214;27.936;2023-04-07T03:20:49;100901.22;;;9.65;54.28
9764;BME280;4921;43.214;27.936;2023-04-07T03:23:17;100903.00;;;9.65;54.88
9764;BME280;4921;43.214;27.936;2023-04-07T03:25:44;100906.25;;;9.56;55.53
9764;BME280;4921;43.214;27.936;2023-04-07T03:28:12;100902.63;;;9.33;57.36
9764;BME280;4921;43.214;27.936;2023-04-07T03:30:40;100898.97;;;9.36;56.61
9764;BME280;4921;43.214;27.936;2023-04-07T03:33:06;100914.38;;;9.28;55.32
9764;BME280;4921;43.214;27.936;2023-04-07T03:35:33;100913.03;;;9.35;55.32
9764;BME280;4921;43.214;27.936;2023-04-07T03:38:01;100914.78;;;9.47;53.67
9764;BME280;4921;43.214;27.936;2023-04-07T03:40:28;100917.31;;;9.48;53.71
9764;BME280;4921;43.214;27.936;2023-04-07T03:42:55;100922.66;;;9.47;53.21
9764;BME280;4921;43.214;27.936;2023-04-07T03:45:23;100924.53;;;9.45;52.93
9764;BME280;4921;43.214;27.936;2023-04-07T03:47:50;100935.47;;;9.39;52.89
9764;BME280;4921;43.214;27.936;2023-04-07T03:50:18;100931.59;;;9.32;52.24
9764;BME280;4921;43.214;27.936;2023-04-07T03:52:45;100930.25;;;9.26;53.50
9764;BME280;4921;43.214;27.936;2023-04-07T03:55:12;100931.59;;;9.32;53.55
9764;BME280;4921;43.214;27.936;2023-04-07T03:57:40;100931.50;;;9.33;52.65
9764;BME280;4921;43.214;27.936;2023-04-07T04:00:08;100932.75;;;9.28;53.05
9764;BME280;4921;43.214;27.936;2023-04-07T04:02:36;100941.59;;;9.27;52.49
9764;BME280;4921;43.214;27.936;2023-04-07T04:05:04;100941.28;;;9.31;52.67
9764;BME280;4921;43.214;27.936;2023-04-07T04:07:30;100939.38;;;9.46;59.83
9764;BME280;4921;43.214;27.936;2023-04-07T04:09:58;100936.38;;;10.12;100.00
9764;BME280;4921;43.214;27.936;2023-04-07T04:12:25;100945.03;;;10.48;100.00
9764;BME280;4921;43.214;27.936;2023-04-07T04:14:53;100946.22;;;10.79;100.00
9764;BME280;4921;43.214;27.936;2023-04-07T04:17:20;100943.31;;;11.17;94.39
9764;BME280;4921;43.214;27.936;2023-04-07T04:19:48;100946.94;;;11.38;66.14
9764;BME280;4921;43.214;27.936;2023-04-07T04:22:15;100947.78;;;11.38;55.78
9764;BME280;4921;43.214;27.936;2023-04-07T04:24:43;100949.34;;;11.30;52.19
9764;BME280;4921;43.214;27.936;2023-04-07T04:27:10;100952.16;;;11.16;50.78
9764;BME280;4921;43.214;27.936;2023-04-07T04:29:37;100947.47;;;10.97;50.04
9764;BME280;4921;43.214;27.936;2023-04-07T04:32:04;100955.22;;;10.88;49.36
9764;BME280;4921;43.214;27.936;2023-04-07T04:34:31;100954.84;;;10.81;49.09
9764;BME280;4921;43.214;27.936;2023-04-07T04:37:00;100965.78;;;10.64;49.45
9764;BME280;4921;43.214;27.936;2023-04-07T04:39:27;100969.00;;;10.56;49.70
9764;BME280;4921;43.214;27.936;2023-04-07T04:41:54;100968.28;;;10.54;48.92
9764;BME280;4921;43.214;27.936;2023-04-07T04:44:21;100961.59;;;10.38;49.78
9764;BME280;4921;43.214;27.936;2023-04-07T04:46:48;100965.28;;;10.35;50.36
9764;BME280;4921;43.214;27.936;2023-04-07T04:49:15;100966.06;;;10.25;50.33
9764;BME280;4921;43.214;27.936;2023-04-07T04:51:43;100967.38;;;10.19;50.02
9764;BME280;4921;43.214;27.936;2023-04-07T04:54:11;100967.56;;;10.16;50.06
9764;BME280;4921;43.214;27.936;2023-04-07T04:56:38;100969.25;;;10.17;50.05
9764;BME280;4921;43.214;27.936;2023-04-07T04:59:07;100976.63;;;10.12;50.51
9764;BME280;4921;43.214;27.936;2023-04-07T05:01:34;100981.25;;;10.09;50.22
9764;BME280;4921;43.214;27.936;2023-04-07T05:04:01;100981.56;;;10.04;50.25
9764;BME280;4921;43.214;27.936;2023-04-07T05:06:28;100985.53;;;10.10;50.04
9764;BME280;4921;43.214;27.936;2023-04-07T05:08:55;100986.38;;;10.10;50.35
9764;BME280;4921;43.214;27.936;2023-04-07T05:11:23;100985.88;;;10.05;50.60
9764;BME280;4921;43.214;27.936;2023-04-07T05:13:51;100989.56;;;10.03;51.44
9764;BME280;4921;43.214;27.936;2023-04-07T05:16:18;100986.81;;;10.04;50.85
9764;BME280;4921;43.214;27.936;2023-04-07T05:18:45;100985.53;;;10.10;50.88
9764;BME280;4921;43.214;27.936;2023-04-07T05:21:11;100992.06;;;10.17;50.42
9764;BME280;4921;43.214;27.936;2023-04-07T05:23:39;100988.50;;;10.18;50.58
9764;BME280;4921;43.214;27.936;2023-04-07T05:26:06;100990.69;;;10.24;49.63
9764;BME280;4921;43.214;27.936;2023-04-07T05:28:34;100995.94;;;10.24;48.56
9764;BME280;4921;43.214;27.936;2023-04-07T05:31:01;101001.38;;;10.33;48.17
9764;BME280;4921;43.214;27.936;2023-04-07T05:33:28;101007.59;;;10.32;48.48
9764;BME280;4921;43.214;27.936;2023-04-07T05:35:55;101005.09;;;10.42;48.55
9764;BME280;4921;43.214;27.936;2023-04-07T05:38:22;101005.41;;;10.50;47.24
9764;BME280;4921;43.214;27.936;2023-04-07T05:40:49;101009.38;;;10.55;47.53
9764;BME280;4921;43.214;27.936;2023-04-07T05:43:16;101007.47;;;10.57;48.06
9764;BME280;4921;43.214;27.936;2023-04-07T05:45:44;101004.38;;;10.63;47.62
9764;BME280;4921;43.214;27.936;2023-04-07T05:48:11;101004.44;;;10.74;47.85
9764;BME280;4921;43.214;27.936;2023-04-07T05:50:38;100993.78;;;10.65;47.80
9764;BME280;4921;43.214;27.936;2023-04-07T05:53:05;101004.16;;;10.66;47.49
9764;BME280;4921;43.214;27.936;2023-04-07T05:55:32;101004.31;;;10.76;46.95
9764;BME280;4921;43.214;27.936;2023-04-07T05:57:59;101015.13;;;10.84;47.17
9764;BME280;4921;43.214;27.936;2023-04-07T06:00:26;101014.44;;;10.93;47.89
9764;BME280;4921;43.214;27.936;2023-04-07T06:02:55;101014.25;;;11.07;46.16
9764;BME280;4921;43.214;27.936;2023-04-07T06:05:21;101012.22;;;11.11;45.93
9764;BME280;4921;43.214;27.936;2023-04-07T06:07:50;101017.03;;;11.17;45.46
9764;BME280;4921;43.214;27.936;2023-04-07T06:10:17;101017.63;;;11.20;45.00
9764;BME280;4921;43.214;27.936;2023-04-07T06:12:44;101021.31;;;11.18;45.29
9764;BME280;4921;43.214;27.936;2023-04-07T06:15:11;101018.00;;;11.27;45.44
9764;BME280;4921;43.214;27.936;2023-04-07T06:17:38;101029.75;;;11.34;43.86
9764;BME280;4921;43.214;27.936;2023-04-07T06:20:08;101021.34;;;11.29;44.42
9764;BME280;4921;43.214;27.936;2023-04-07T06:22:35;101030.22;;;11.39;45.40
9764;BME280;4921;43.214;27.936;2023-04-07T06:25:02;101033.47;;;11.42;45.83
9764;BME280;4921;43.214;27.936;2023-04-07T06:27:29;101034.56;;;11.51;45.11
9764;BME280;4921;43.214;27.936;2023-04-07T06:29:57;101038.38;;;11.58;43.88
9764;BME280;4921;43.214;27.936;2023-04-07T06:32:24;101035.56;;;11.72;44.31
9764;BME280;4921;43.214;27.936;2023-04-07T06:34:51;101038.69;;;11.77;44.25
9764;BME280;4921;43.214;27.936;2023-04-07T06:37:20;101033.41;;;11.88;44.33
9764;BME280;4921;43.214;27.936;2023-04-07T06:39:49;101037.00;;;11.98;44.25
9764;BME280;4921;43.214;27.936;2023-04-07T06:42:16;101039.88;;;12.17;42.72
9764;BME280;4921;43.214;27.936;2023-04-07T06:44:43;101037.81;;;12.32;50.72
9764;BME280;4921;43.214;27.936;2023-04-07T06:47:10;101039.56;;;12.54;45.45
9764;BME280;4921;43.214;27.936;2023-04-07T06:49:37;101033.88;;;12.69;43.24
9764;BME280;4921;43.214;27.936;2023-04-07T06:52:04;101036.72;;;12.77;44.50
9764;BME280;4921;43.214;27.936;2023-04-07T06:54:32;101039.69;;;12.84;44.13
9764;BME280;4921;43.214;27.936;2023-04-07T06:57:00;101044.34;;;12.91;43.62
9764;BME280;4921;43.214;27.936;2023-04-07T06:59:27;101038.19;;;13.02;41.06
9764;BME280;4921;43.214;27.936;2023-04-07T07:01:54;101033.38;;;12.96;42.15
9764;BME280;4921;43.214;27.936;2023-04-07T07:04:21;101039.78;;;13.05;41.70
9764;BME280;4921;43.214;27.936;2023-04-07T07:06:47;101045.09;;;13.14;40.18
9764;BME280;4921;43.214;27.936;2023-04-07T07:09:14;101054.63;;;13.26;38.51
9764;BME280;4921;43.214;27.936;2023-04-07T07:11:44;101054.97;;;13.33;37.79
9764;BME280;4921;43.214;27.936;2023-04-07T07:14:11;101053.63;;;13.38;38.80
9764;BME280;4921;43.214;27.936;2023-04-07T07:16:38;101055.50;;;13.47;39.49
9764;BME280;4921;43.214;27.936;2023-04-07T07:19:05;101054.22;;;13.72;38.58
9764;BME280;4921;43.214;27.936;2023-04-07T07:21:32;101067.94;;;13.87;39.77
9764;BME280;4921;43.214;27.936;2023-04-07T07:23:59;101057.88;;;14.11;36.72
9764;BME280;4921;43.214;27.936;2023-04-07T07:26:26;101066.34;;;14.35;35.64
9764;BME280;4921;43.214;27.936;2023-04-07T07:28:54;101060.81;;;14.47;35.42
9764;BME280;4921;43.214;27.936;2023-04-07T07:31:21;101064.44;;;14.56;34.51
9764;BME280;4921;43.214;27.936;2023-04-07T07:33:48;101060.16;;;14.74;34.42
9764;BME280;4921;43.214;27.936;2023-04-07T07:36:16;101057.78;;;14.71;34.13
9764;BME280;4921;43.214;27.936;2023-04-07T07:38:43;101069.63;;;14.67;35.16
9764;BME280;4921;43.214;27.936;2023-04-07T07:41:10;101069.47;;;14.59;35.91
9764;BME280;4921;43.214;27.936;2023-04-07T07:43:37;101076.03;;;14.55;36.49
9764;BME280;4921;43.214;27.936;2023-04-07T07:46:05;101072.84;;;14.71;35.77
9764;BME280;4921;43.214;27.936;2023-04-07T07:48:32;101071.44;;;14.76;34.46
9764;BME280;4921;43.214;27.936;2023-04-07T07:50:59;101073.13;;;14.87;33.81
9764;BME280;4921;43.214;27.936;2023-04-07T07:53:26;101075.22;;;14.93;33.67
9764;BME280;4921;43.214;27.936;2023-04-07T07:55:54;101075.50;;;14.90;33.97
9764;BME280;4921;43.214;27.936;2023-04-07T07:58:21;101078.88;;;14.92;34.09
9764;BME280;4921;43.214;27.936;2023-04-07T08:00:48;101081.47;;;14.82;32.92
9764;BME280;4921;43.214;27.936;2023-04-07T08:03:17;101076.75;;;14.76;33.09
9764;BME280;4921;43.214;27.936;2023-04-07T08:05:47;101079.69;;;14.83;33.29
9764;BME280;4921;43.214;27.936;2023-04-07T08:08:14;101075.94;;;14.85;33.23
9764;BME280;4921;43.214;27.936;2023-04-07T08:10:41;101070.75;;;14.84;34.37
9764;BME280;4921;43.214;27.936;2023-04-07T08:13:08;101069.09;;;14.83;35.45
9764;BME280;4921;43.214;27.936;2023-04-07T08:15:35;101074.25;;;14.94;34.40
9764;BME280;4921;43.214;27.936;2023-04-07T08:18:03;101070.22;;;14.99;34.15
9764;BME280;4921;43.214;27.936;2023-04-07T08:20:32;101072.84;;;14.99;33.49
9764;BME280;4921;43.214;27.936;2023-04-07T08:22:59;101074.53;;;15.00;32.97
9764;BME280;4921;43.214;27.936;2023-04-07T08:25:27;101084.97;;;14.92;33.70
9764;BME280;4921;43.214;27.936;2023-04-07T08:27:55;101082.34;;;15.02;33.85
9764;BME280;4921;43.214;27.936;2023-04-07T08:30:22;101079.69;;;15.02;33.91
9764;BME280;4921;43.214;27.936;2023-04-07T08:32:49;101083.88;;;15.04;33.35
9764;BME280;4921;43.214;27.936;2023-04-07T08:35:16;101082.19;;;15.03;33.43
9764;BME280;4921;43.214;27.936;2023-04-07T08:37:44;101087.50;;;15.13;33.57
9764;BME280;4921;43.214;27.936;2023-04-07T08:40:12;101084.28;;;15.19;32.65
9764;BME280;4921;43.214;27.936;2023-04-07T08:42:41;101085.41;;;15.16;32.62
9764;BME280;4921;43.214;27.936;2023-04-07T08:45:09;101090.44;;;15.19;33.54
9764;BME280;4921;43.214;27.936;2023-04-07T08:47:36;101084.59;;;15.16;33.05
9764;BME280;4921;43.214;27.936;2023-04-07T08:50:07;101090.41;;;15.10;33.10
9764;BME280;4921;43.214;27.936;2023-04-07T08:52:39;101088.75;;;15.09;33.28
9764;BME280;4921;43.214;27.936;2023-04-07T08:55:09;101100.06;;;15.11;32.99
9764;BME280;4921;43.214;27.936;2023-04-07T08:57:37;101097.81;;;15.06;32.73
9764;BME280;4921;43.214;27.936;2023-04-07T09:00:05;101097.38;;;15.01;32.74
9764;BME280;4921;43.214;27.936;2023-04-07T09:02:33;101097.09;;;14.95;32.79
9764;BME280;4921;43.214;27.936;2023-04-07T09:05:03;101107.56;;;14.87;32.96
9764;BME280;4921;43.214;27.936;2023-04-07T09:07:31;101104.75;;;14.79;33.39
9764;BME280;4921;43.214;27.936;2023-04-07T09:09:58;101108.09;;;14.71;33.48
9764;BME280;4921;43.214;27.936;2023-04-07T09:12:28;101113.53;;;14.70;33.45
9764;BME280;4921;43.214;27.936;2023-04-07T09:14:55;101112.69;;;14.69;33.42
9764;BME280;4921;43.214;27.936;2023-04-07T09:17:24;101113.22;;;14.63;33.19
9764;BME280;4921;43.214;27.936;2023-04-07T09:19:52;101116.84;;;14.62;34.21
9764;BME280;4921;43.214;27.936;2023-04-07T09:22:34;101106.38;;;14.61;33.51
9764;BME280;4921;43.214;27.936;2023-04-07T09:25:11;101123.25;;;14.69;33.49
9764;BME280;4921;43.214;27.936;2023-04-07T09:27:40;101113.22;;;14.63;34.10
9764;BME280;4921;43.214;27.936;2023-04-07T09:30:11;101123.38;;;14.58;34.86
9764;BME280;4921;43.214;27.936;2023-04-07T09:32:39;101125.34;;;14.66;34.59
9764;BME280;4921;43.214;27.936;2023-04-07T09:35:07;101120.63;;;14.69;34.45
9764;BME280;4921;43.214;27.936;2023-04-07T09:37:35;101123.25;;;14.69;34.24
9764;BME280;4921;43.214;27.936;2023-04-07T09:40:02;101108.19;;;14.60;34.24
9764;BME280;4921;43.214;27.936;2023-04-07T09:42:31;101116.03;;;14.71;35.04
9764;BME280;4921;43.214;27.936;2023-04-07T09:45:04;101127.19;;;14.75;35.19
9764;BME280;4921;43.214;27.936;2023-04-07T09:47:31;101124.84;;;14.81;35.17
9764;BME280;4921;43.214;27.936;2023-04-07T09:49:58;101122.19;;;14.91;35.70
9764;BME280;4921;43.214;27.936;2023-04-07T09:52:49;101114.97;;;15.12;34.55
9764;BME280;4921;43.214;27.936;2023-04-07T09:55:19;101117.06;;;15.27;33.60
9764;BME280;4921;43.214;27.936;2023-04-07T09:57:48;101119.41;;;15.40;34.60
9764;BME280;4921;43.214;27.936;2023-04-07T10:00:17;101122.53;;;15.55;35.02
9764;BME280;4921;43.214;27.936;2023-04-07T10:02:44;101116.63;;;15.70;34.56
9764;BME280;4921;43.214;27.936;2023-04-07T10:05:12;101115.06;;;15.77;35.02
9764;BME280;4921;43.214;27.936;2023-04-07T10:07:39;101122.72;;;15.99;33.96
9764;BME280;4921;43.214;27.936;2023-04-07T10:10:07;101113.63;;;16.02;33.83
9764;BME280;4921;43.214;27.936;2023-04-07T10:12:36;101114.44;;;16.02;34.59
9764;BME280;4921;43.214;27.936;2023-04-07T10:15:04;101126.00;;;16.11;34.47
9764;BME280;4921;43.214;27.936;2023-04-07T10:17:35;101124.75;;;16.15;34.83
9764;BME280;4921;43.214;27.936;2023-04-07T10:20:03;101116.78;;;16.15;34.36
9764;BME280;4921;43.214;27.936;2023-04-07T10:22:32;101125.63;;;16.06;34.65
9764;BME280;4921;43.214;27.936;2023-04-07T10:25:05;101133.66;;;16.24;33.99
9764;BME280;4921;43.214;27.936;2023-04-07T10:27:37;101124.09;;;16.40;33.59
9764;BME280;4921;43.214;27.936;2023-04-07T10:30:16;101116.94;;;16.50;33.62
9764;BME280;4921;43.214;27.936;2023-04-07T10:32:50;101122.47;;;16.57;33.53
9764;BME280;4921;43.214;27.936;2023-04-07T10:35:18;101122.06;;;16.52;33.63
9764;BME280;4921;43.214;27.936;2023-04-07T10:38:09;101120.66;;;16.57;33.47
9764;BME280;4921;43.214;27.936;2023-04-07T10:40:38;101123.63;;;16.45;33.80
9764;BME280;4921;43.214;27.936;2023-04-07T10:43:06;101114.16;;;16.42;34.08
9764;BME280;4921;43.214;27.936;2023-04-07T10:45:52;101131.53;;;16.27;34.45
9764;BME280;4921;43.214;27.936;2023-04-07T10:48:22;101124.69;;;16.25;34.43
9764;BME280;4921;43.214;27.936;2023-04-07T10:51:11;101126.25;;;16.18;35.04
9764;BME280;4921;43.214;27.936;2023-04-07T10:57:05;101125.72;;;16.14;34.82
9764;BME280;4921;43.214;27.936;2023-04-07T10:59:35;101125.19;;;16.11;35.23
9764;BME280;4921;43.214;27.936;2023-04-07T11:02:30;101117.94;;;16.03;34.19
9764;BME280;4921;43.214;27.936;2023-04-07T11:05:00;101123.13;;;15.95;34.51
9764;BME280;4921;43.214;27.936;2023-04-07T11:07:46;101127.63;;;15.85;34.80
9764;BME280;4921;43.214;27.936;2023-04-07T11:10:15;101129.19;;;15.78;34.58
9764;BME280;4921;43.214;27.936;2023-04-07T11:12:44;101126.56;;;15.59;34.45
9764;BME280;4921;43.214;27.936;2023-04-07T11:15:24;101124.88;;;15.58;34.71
9764;BME280;4921;43.214;27.936;2023-04-07T11:18:12;101120.00;;;15.53;36.04
9764;BME280;4921;43.214;27.936;2023-04-07T11:20:46;101123.34;;;15.55;34.74
9764;BME280;4921;43.214;27.936;2023-04-07T11:23:14;101107.84;;;15.41;34.82
9764;BME280;4921;43.214;27.936;2023-04-07T11:25:42;101124.91;;;15.48;34.82
9764;BME280;4921;43.214;27.936;2023-04-07T11:28:11;101129.22;;;15.49;35.10
9764;BME280;4921;43.214;27.936;2023-04-07T11:30:44;101124.72;;;15.40;35.91
9764;BME280;4921;43.214;27.936;2023-04-07T11:33:15;101128.09;;;15.52;36.71
9764;BME280;4921;43.214;27.936;2023-04-07T11:35:52;101126.28;;;15.52;35.68
9764;BME280;4921;43.214;27.936;2023-04-07T11:38:21;101117.22;;;15.45;34.80
9764;BME280;4921;43.214;27.936;2023-04-07T11:40:49;101124.28;;;14.87;35.48
9764;BME280;4921;43.214;27.936;2023-04-07T11:43:21;101125.41;;;15.04;36.46
9764;BME280;4921;43.214;27.936;2023-04-07T11:46:05;101123.34;;;15.17;36.63
9764;BME280;4921;43.214;27.936;2023-04-07T11:48:33;101125.31;;;15.24;36.65
9764;BME280;4921;43.214;27.936;2023-04-07T11:51:02;101110.91;;;15.27;36.78
9764;BME280;4921;43.214;27.936;2023-04-07T11:53:31;101122.09;;;15.31;37.87
9764;BME280;4921;43.214;27.936;2023-04-07T11:56:02;101119.72;;;15.37;36.60
9764;BME280;4921;43.214;27.936;2023-04-07T11:58:30;101122.47;;;15.36;37.20
9764;BME280;4921;43.214;27.936;2023-04-07T12:00:58;101121.53;;;15.37;36.94
9764;BME280;4921;43.214;27.936;2023-04-07T12:03:29;101122.81;;;15.52;36.08
9764;BME280;4921;43.214;27.936;2023-04-07T12:05:57;101119.16;;;15.53;36.38
9764;BME280;4921;43.214;27.936;2023-04-07T12:08:37;101118.56;;;15.78;36.40
9764;BME280;4921;43.214;27.936;2023-04-07T12:11:05;101132.06;;;15.94;37.10
9764;BME280;4921;43.214;27.936;2023-04-07T12:13:32;101116.97;;;16.04;37.74
9764;BME280;4921;43.214;27.936;2023-04-07T12:18:44;101118.19;;;16.46;37.75
9764;BME280;4921;43.214;27.936;2023-04-07T12:21:11;101110.13;;;16.65;35.42
9764;BME280;4921;43.214;27.936;2023-04-07T12:23:40;101121.00;;;16.72;35.11
9764;BME280;4921;43.214;27.936;2023-04-07T12:26:07;101115.66;;;16.54;34.03
9764;BME280;4921;43.214;27.936;2023-04-07T12:28:36;101123.94;;;16.05;34.36
9764;BME280;4921;43.214;27.936;2023-04-07T12:31:03;101116.38;;;15.54;35.39
9764;BME280;4921;43.214;27.936;2023-04-07T12:33:30;101111.47;;;15.21;36.75
9764;BME280;4921;43.214;27.936;2023-04-07T12:35:57;101117.91;;;15.09;38.30
9764;BME280;4921;43.214;27.936;2023-04-07T12:38:24;101127.19;;;14.84;39.13
9764;BME280;4921;43.214;27.936;2023-04-07T12:40:53;101125.41;;;14.45;44.29
9764;BME280;4921;43.214;27.936;2023-04-07T12:43:20;101131.00;;;14.42;45.62
9764;BME280;4921;43.214;27.936;2023-04-07T12:45:47;101139.19;;;14.39;47.03
9764;BME280;4921;43.214;27.936;2023-04-07T12:48:14;101143.34;;;14.32;47.14
9764;BME280;4921;43.214;27.936;2023-04-07T12:50:43;101139.03;;;13.80;50.16
9764;BME280;4921;43.214;27.936;2023-04-07T12:53:10;101140.94;;;13.37;54.28
9764;BME280;4921;43.214;27.936;2023-04-07T12:55:37;101144.53;;;13.36;52.85
9764;BME280;4921;43.214;27.936;2023-04-07T12:58:06;101139.56;;;13.22;53.46
9764;BME280;4921;43.214;27.936;2023-04-07T13:00:33;101145.00;;;13.41;52.38
9764;BME280;4921;43.214;27.936;2023-04-07T13:03:01;101148.19;;;13.24;52.54
9764;BME280;4921;43.214;27.936;2023-04-07T13:05:28;101156.75;;;12.94;53.08
9764;BME280;4921;43.214;27.936;2023-04-07T13:07:55;101163.94;;;13.03;54.57
9764;BME280;4921;43.214;27.936;2023-04-07T13:10:22;101165.63;;;13.04;60.51
9764;BME280;4921;43.214;27.936;2023-04-07T13:12:49;101170.19;;;13.02;62.56
9764;BME280;4921;43.214;27.936;2023-04-07T13:15:18;101164.97;;;12.80;68.54
9764;BME280;4921;43.214;27.936;2023-04-07T13:17:45;101157.41;;;12.75;66.61